createdAt,value
2018-06-11T00:00:27.755Z,68.69
2018-06-11T00:02:58.826Z,68.78
2018-06-11T00:05:29.234Z,68.78
2018-06-11T00:07:59.598Z,68.80
2018-06-11T00:10:30.012Z,68.11
2018-06-11T00:13:00.391Z,67.64
2018-06-11T00:15:30.751Z,68.50
2018-06-11T00:18:01.221Z,68.67
2018-06-11T00:20:31.590Z,68.80
2018-06-11T00:23:01.952Z,68.08
2018-06-11T00:25:32.487Z,67.44
2018-06-11T00:28:02.902Z,67.76
2018-06-11T00:30:33.429Z,67.15
2018-06-11T00:33:03.838Z,67.19
2018-06-11T00:35:34.210Z,66.98
2018-06-11T00:38:04.535Z,66.77
2018-06-11T00:40:34.996Z,66.98
2018-06-11T00:43:05.335Z,67.06
2018-06-11T00:45:35.652Z,67.45
2018-06-11T00:48:06.538Z,67.41
2018-06-11T00:50:36.869Z,68.40
2018-06-11T00:53:07.276Z,68.64
2018-06-11T00:56:15.249Z,69.42
2018-06-11T00:58:45.562Z,69.58
2018-06-11T01:01:16.543Z,69.34
2018-06-11T01:03:46.859Z,69.73
2018-06-11T01:06:17.283Z,69.83
2018-06-11T01:08:47.595Z,70.26
2018-06-11T01:11:17.907Z,70.28
2018-06-11T01:13:48.407Z,70.32
2018-06-11T01:16:18.778Z,69.68
2018-06-11T01:18:49.095Z,69.36
2018-06-11T01:21:19.721Z,69.20
2018-06-11T01:23:50.097Z,70.33
2018-06-11T01:26:21.195Z,69.99
2018-06-11T01:28:51.633Z,69.84
2018-06-11T01:31:22.005Z,70.30
2018-06-11T01:33:52.359Z,70.62
2018-06-11T01:36:22.711Z,70.82
2018-06-11T01:38:53.139Z,71.40
2018-06-11T01:41:23.581Z,71.17
2018-06-11T01:43:54.107Z,71.62
2018-06-11T01:46:24.641Z,71.35
2018-06-11T01:51:26.913Z,70.89
2018-06-11T01:53:57.227Z,70.85
2018-06-11T01:56:27.659Z,70.86
2018-06-11T01:58:58.100Z,70.50
2018-06-11T02:01:28.561Z,70.95
2018-06-11T02:03:58.943Z,70.91
2018-06-11T02:06:29.607Z,71.57
2018-06-11T02:08:59.963Z,71.37
2018-06-11T02:11:30.322Z,71.45
2018-06-11T02:14:00.740Z,71.51
2018-06-11T02:16:31.329Z,71.25
2018-06-11T02:19:01.638Z,71.71
2018-06-11T02:21:32.449Z,71.76
2018-06-11T02:24:02.760Z,71.70
2018-06-11T02:26:33.689Z,71.27
2018-06-11T02:29:04.277Z,71.42
2018-06-11T02:31:34.575Z,71.64
2018-06-11T02:34:05.042Z,70.91
2018-06-11T02:36:35.378Z,71.74
2018-06-11T02:39:09.288Z,71.91
2018-06-11T02:41:39.734Z,70.89
2018-06-11T02:44:10.151Z,71.30
2018-06-11T02:46:40.500Z,72.51
2018-06-11T02:49:10.822Z,73.71
2018-06-11T02:51:40.602Z,74.77
2018-06-11T02:54:11.156Z,75.26
2018-06-11T02:56:40.972Z,75.47
2018-06-11T02:59:10.827Z,75.42
2018-06-11T03:01:40.676Z,74.73
2018-06-11T03:04:10.748Z,74.04
2018-06-11T03:06:40.595Z,74.10
2018-06-11T03:09:10.382Z,73.65
2018-06-11T03:11:40.276Z,73.67
2018-06-11T03:14:10.052Z,73.59
2018-06-11T03:16:40.263Z,73.25
2018-06-11T03:19:10.870Z,72.37
2018-06-11T03:21:41.204Z,72.06
2018-06-11T03:24:11.538Z,72.57
2018-06-11T03:26:41.918Z,71.93
2018-06-11T03:29:12.890Z,72.19
2018-06-11T03:31:44.148Z,72.57
2018-06-11T03:34:14.513Z,72.28
2018-06-11T03:36:44.848Z,72.49
2018-06-11T03:39:15.159Z,72.16
2018-06-11T03:41:45.488Z,72.02
2018-06-11T03:44:15.901Z,72.23
2018-06-11T03:46:46.332Z,71.57
2018-06-11T03:49:16.664Z,71.02
2018-06-11T03:51:46.984Z,70.56
2018-06-11T03:54:17.300Z,70.44
2018-06-11T03:56:47.677Z,69.79
2018-06-11T03:59:18.104Z,69.68
2018-06-11T04:01:48.441Z,68.79
2018-06-11T04:04:18.823Z,68.07
2018-06-11T04:06:49.217Z,67.74
2018-06-11T04:09:19.634Z,67.23
2018-06-11T04:11:50.028Z,66.79
2018-06-11T04:14:20.372Z,65.41
2018-06-11T04:16:50.776Z,65.03
2018-06-11T04:19:21.063Z,65.34
2018-06-11T04:21:51.430Z,65.43
2018-06-11T04:24:21.789Z,64.08
2018-06-11T04:26:52.956Z,64.22
2018-06-11T04:29:23.286Z,61.13
2018-06-11T04:31:53.742Z,60.08
2018-06-11T04:34:24.189Z,58.07
2018-06-11T04:36:54.580Z,56.68
2018-06-11T04:39:24.946Z,55.13
2018-06-11T04:41:55.348Z,52.27
2018-06-11T04:44:25.654Z,51.18
2018-06-11T04:46:56.058Z,51.03
2018-06-11T04:49:26.421Z,50.62
2018-06-11T04:51:56.770Z,49.17
2018-06-11T04:54:27.105Z,48.36
2018-06-11T04:56:57.611Z,46.52
2018-06-11T04:59:27.898Z,45.88
2018-06-11T05:01:58.454Z,46.09
2018-06-11T05:04:28.970Z,45.09
2018-06-11T05:06:59.144Z,44.42
2018-06-11T05:09:29.204Z,41.97
2018-06-11T05:12:00.206Z,40.48
2018-06-11T05:14:30.798Z,41.25
2018-06-11T05:17:01.016Z,40.63
2018-06-11T05:19:31.028Z,41.17
2018-06-11T05:22:01.208Z,40.50
2018-06-11T05:24:31.226Z,41.81
2018-06-11T05:27:01.400Z,43.51
2018-06-11T05:29:31.774Z,43.99
2018-06-11T05:33:31.520Z,45.43
2018-06-11T05:36:01.807Z,49.75
2018-06-11T05:38:32.196Z,51.92
2018-06-11T05:41:02.518Z,53.42
2018-06-11T05:43:33.720Z,56.28
2018-06-11T05:46:04.096Z,57.30
2018-06-11T05:48:34.379Z,58.75
2018-06-11T05:51:04.740Z,58.72
2018-06-11T05:53:35.039Z,60.36
2018-06-11T05:56:05.274Z,61.89
2018-06-11T05:58:35.640Z,62.03
2018-06-11T06:01:06.038Z,62.14
2018-06-11T06:03:36.325Z,62.71
2018-06-11T06:06:06.678Z,62.55
2018-06-11T06:08:37.066Z,62.66
2018-06-11T06:11:07.614Z,62.01
2018-06-11T06:13:37.972Z,61.72
2018-06-11T06:16:08.300Z,61.07
2018-06-11T06:18:38.724Z,62.11
2018-06-11T06:21:08.990Z,61.19
2018-06-11T06:23:39.298Z,62.28
2018-06-11T06:26:09.578Z,61.67
2018-06-11T06:28:39.918Z,62.03
2018-06-11T06:31:10.226Z,62.91
2018-06-11T06:33:40.570Z,62.81
2018-06-11T06:36:11.002Z,62.73
2018-06-11T06:38:41.363Z,61.93
2018-06-11T06:41:12.054Z,62.27
2018-06-11T06:43:42.334Z,61.84
2018-06-11T06:46:12.629Z,61.70
2018-06-11T06:48:42.999Z,61.81
2018-06-11T06:51:13.295Z,61.51
2018-06-11T06:53:43.662Z,61.86
2018-06-11T06:56:14.118Z,61.05
2018-06-11T06:58:44.435Z,61.84
2018-06-11T07:01:14.791Z,64.60
2018-06-11T07:03:45.838Z,66.11
2018-06-11T07:06:16.127Z,69.05
2018-06-11T07:08:46.537Z,70.22
2018-06-11T07:11:16.836Z,70.78
2018-06-11T07:13:47.312Z,70.22
2018-06-11T07:16:17.887Z,71.14
2018-06-11T07:18:48.263Z,70.47
2018-06-11T07:21:18.531Z,70.37
2018-06-11T07:23:48.890Z,69.54
2018-06-11T07:26:20.117Z,68.66
2018-06-11T07:28:50.399Z,66.64
2018-06-11T07:31:20.836Z,64.61
2018-06-11T07:33:51.709Z,62.42
2018-06-11T07:36:22.043Z,57.34
2018-06-11T07:38:52.383Z,56.49
2018-06-11T07:41:22.669Z,55.27
2018-06-11T07:43:52.985Z,56.01
2018-06-11T07:46:23.477Z,55.59
2018-06-11T07:48:53.867Z,55.47
2018-06-11T07:51:24.271Z,55.55
2018-06-11T07:53:54.691Z,55.73
2018-06-11T07:56:24.991Z,55.90
2018-06-11T07:58:55.311Z,56.28
2018-06-11T08:01:25.782Z,56.48
2018-06-11T08:03:56.240Z,54.76
2018-06-11T08:06:26.683Z,53.23
2018-06-11T08:08:57.111Z,54.01
2018-06-11T08:11:27.592Z,54.81
2018-06-11T08:13:58.039Z,55.00
2018-06-11T08:16:28.354Z,53.58
2018-06-11T08:18:58.717Z,54.40
2018-06-11T08:21:28.993Z,53.40
2018-06-11T08:23:59.887Z,52.29
2018-06-11T08:26:30.204Z,52.21
2018-06-11T08:29:00.735Z,52.84
2018-06-11T08:31:31.053Z,53.23
2018-06-11T08:34:01.321Z,53.34
2018-06-11T08:36:31.968Z,54.05
2018-06-11T08:39:02.355Z,53.89
2018-06-11T08:41:32.717Z,53.43
2018-06-11T08:44:02.999Z,53.38
2018-06-11T08:46:33.316Z,55.46
2018-06-11T08:49:03.734Z,56.70
2018-06-11T08:51:34.037Z,56.35
2018-06-11T08:54:04.367Z,56.20
2018-06-11T08:56:34.753Z,57.39
2018-06-11T08:59:05.119Z,57.28
2018-06-11T09:01:35.441Z,57.87
2018-06-11T09:04:05.887Z,58.97
2018-06-11T09:06:36.193Z,58.02
2018-06-11T09:09:09.424Z,57.37
2018-06-11T09:11:39.708Z,55.38
2018-06-11T09:14:10.069Z,54.05
2018-06-11T09:16:40.677Z,56.94
2018-06-11T09:19:11.036Z,57.44
2018-06-11T09:21:41.324Z,58.06
2018-06-11T09:24:11.653Z,57.82
2018-06-11T09:26:42.772Z,58.06
2018-06-11T09:29:13.109Z,60.52
2018-06-11T09:31:43.474Z,63.30
2018-06-11T09:34:13.993Z,65.43
2018-06-11T09:36:44.388Z,67.02
2018-06-11T09:39:14.763Z,66.98
2018-06-11T09:41:44.761Z,66.50
2018-06-11T09:44:15.105Z,66.16
2018-06-11T09:46:45.796Z,67.21
2018-06-11T09:49:16.208Z,66.97
2018-06-11T09:51:46.622Z,67.00
2018-06-11T09:54:16.904Z,66.14
2018-06-11T09:56:47.327Z,64.53
2018-06-11T09:59:17.691Z,64.70
2018-06-11T10:01:48.922Z,64.86
2018-06-11T10:04:19.333Z,65.31
2018-06-11T10:06:49.697Z,66.12
2018-06-11T10:09:20.066Z,66.03
2018-06-11T10:11:51.032Z,65.32
2018-06-11T10:14:21.306Z,64.56
2018-06-11T10:16:51.613Z,63.63
2018-06-11T10:19:21.974Z,64.46
2018-06-11T10:21:52.482Z,64.07
2018-06-11T10:24:22.844Z,63.04
2018-06-11T10:26:53.137Z,63.42
2018-06-11T10:29:23.417Z,64.00
2018-06-11T10:31:53.373Z,64.07
2018-06-11T10:34:23.765Z,63.78
2018-06-11T10:36:54.080Z,65.11
2018-06-11T10:39:24.379Z,65.31
2018-06-11T10:41:55.472Z,65.89
2018-06-11T10:44:25.759Z,66.72
2018-06-11T10:46:56.345Z,65.68
2018-06-11T10:49:26.653Z,65.12
2018-06-11T10:51:56.985Z,65.24
2018-06-11T10:54:27.365Z,64.22
2018-06-11T10:56:57.457Z,65.41
2018-06-11T10:59:27.729Z,66.33
2018-06-11T11:01:58.022Z,68.04
2018-06-11T11:04:28.367Z,68.01
2018-06-11T11:06:58.852Z,68.24
2018-06-11T11:09:29.553Z,67.71
2018-06-11T11:11:59.867Z,68.01
2018-06-11T11:14:30.180Z,68.16
2018-06-11T11:17:00.505Z,69.93
2018-06-11T11:19:30.877Z,70.24
2018-06-11T11:22:01.182Z,70.52
2018-06-11T11:24:31.644Z,70.67
2018-06-11T11:27:01.941Z,70.91
2018-06-11T11:29:32.247Z,71.24
2018-06-11T11:32:02.968Z,70.95
2018-06-11T11:34:33.356Z,70.55
2018-06-11T11:37:03.889Z,71.69
2018-06-11T11:39:34.226Z,73.96
2018-06-11T11:42:04.559Z,74.82
2018-06-11T11:44:34.958Z,75.37
2018-06-11T11:47:05.500Z,75.57
2018-06-11T11:49:35.902Z,76.31
2018-06-11T11:52:06.195Z,75.22
2018-06-11T11:54:36.543Z,74.84
2018-06-11T11:57:06.970Z,74.46
2018-06-11T11:59:37.286Z,73.73
2018-06-11T12:02:07.618Z,72.12
2018-06-11T12:04:37.903Z,72.76
2018-06-11T12:07:08.763Z,73.24
2018-06-11T12:09:39.191Z,73.42
2018-06-11T12:12:09.531Z,74.16
2018-06-11T12:14:39.865Z,74.28
2018-06-11T12:17:10.158Z,74.51
2018-06-11T12:19:40.555Z,74.33
2018-06-11T12:22:10.927Z,74.92
2018-06-11T12:24:41.317Z,75.30
2018-06-11T12:27:11.745Z,75.17
2018-06-11T12:29:42.082Z,74.45
2018-06-11T12:32:12.408Z,75.09
2018-06-11T12:34:42.734Z,73.35
2018-06-11T12:37:13.036Z,74.13
2018-06-11T12:39:43.454Z,73.40
2018-06-11T12:42:13.750Z,72.76
2018-06-11T12:44:44.039Z,72.51
2018-06-11T12:47:14.429Z,74.34
2018-06-11T12:49:44.761Z,74.95
2018-06-11T12:52:15.119Z,75.29
2018-06-11T12:54:45.524Z,74.40
2018-06-11T12:57:15.894Z,74.04
2018-06-11T12:59:46.225Z,74.70
2018-06-11T13:02:17.148Z,75.65
2018-06-11T13:04:47.499Z,75.33
2018-06-11T13:07:18.695Z,75.58
2018-06-11T13:09:49.106Z,76.17
2018-06-11T13:12:19.446Z,75.75
2018-06-11T13:14:49.853Z,73.62
2018-06-11T13:17:20.185Z,74.37
2018-06-11T13:19:50.540Z,75.55
2018-06-11T13:22:21.035Z,74.93
2018-06-11T13:24:51.512Z,75.87
2018-06-11T13:27:21.820Z,76.69
2018-06-11T13:29:52.145Z,77.15
2018-06-11T13:32:22.843Z,76.46
2018-06-11T13:34:53.209Z,76.72
2018-06-11T13:37:23.561Z,76.60
2018-06-11T13:39:55.330Z,76.60
2018-06-11T13:42:25.669Z,76.97
2018-06-11T13:44:56.071Z,76.81
2018-06-11T13:47:26.347Z,76.77
2018-06-11T13:49:56.722Z,76.41
2018-06-11T13:52:27.027Z,76.16
2018-06-11T13:54:57.322Z,77.05
2018-06-11T13:57:27.635Z,76.88
2018-06-11T13:59:58.639Z,76.85
2018-06-11T14:02:29.810Z,77.03
2018-06-11T14:05:00.247Z,77.84
2018-06-11T14:07:30.588Z,78.24
2018-06-11T14:10:00.954Z,77.53
2018-06-11T14:12:31.291Z,77.53
2018-06-11T14:15:01.680Z,78.15
2018-06-11T14:17:32.079Z,77.18
2018-06-11T14:20:02.437Z,76.00
2018-06-11T14:22:32.714Z,75.98
2018-06-11T14:25:03.121Z,75.62
2018-06-11T14:27:33.497Z,76.02
2018-06-11T14:30:04.093Z,74.93
2018-06-11T14:32:34.446Z,75.39
2018-06-11T14:35:04.844Z,76.14
2018-06-11T14:37:35.263Z,75.27
2018-06-11T14:40:05.651Z,74.10
2018-06-11T14:42:35.951Z,74.64
2018-06-11T14:45:06.377Z,73.08
2018-06-11T14:47:36.647Z,73.38
2018-06-11T14:50:07.150Z,71.64
2018-06-11T14:52:37.181Z,71.94
2018-06-11T14:55:07.541Z,71.51
2018-06-11T14:57:37.848Z,71.84
2018-06-11T15:00:08.991Z,70.41
2018-06-11T15:02:39.331Z,70.11
2018-06-11T15:05:09.720Z,70.13
2018-06-11T15:07:40.064Z,68.99
2018-06-11T15:10:10.364Z,69.17
2018-06-11T15:12:40.691Z,69.33
2018-06-11T15:15:11.056Z,68.05
2018-06-11T15:17:41.376Z,67.89
2018-06-11T15:20:11.723Z,68.76
2018-06-11T15:22:42.074Z,68.48
2018-06-11T15:25:12.361Z,69.63
2018-06-11T15:27:42.727Z,68.35
2018-06-11T15:30:13.125Z,69.35
2018-06-11T15:32:43.515Z,69.42
2018-06-11T15:35:13.805Z,70.12
2018-06-11T15:37:44.075Z,70.13
2018-06-11T15:40:14.383Z,70.53
2018-06-11T15:42:44.736Z,70.03
2018-06-11T15:45:15.050Z,70.17
2018-06-11T15:47:45.467Z,69.60
2018-06-11T15:50:15.812Z,70.27
2018-06-11T15:52:46.362Z,69.21
2018-06-11T15:55:17.284Z,70.41
2018-06-11T15:57:47.539Z,70.43
2018-06-11T16:00:17.848Z,72.21
2018-06-11T16:02:48.153Z,73.04
2018-06-11T16:05:18.499Z,73.05
2018-06-11T16:07:48.980Z,74.49
2018-06-11T16:10:19.348Z,72.57
2018-06-11T16:12:49.645Z,70.99
2018-06-11T16:15:19.920Z,72.02
2018-06-11T16:17:50.292Z,71.52
2018-06-11T16:20:20.693Z,70.97
2018-06-11T16:22:50.990Z,71.75
2018-06-11T16:25:21.295Z,69.53
2018-06-11T16:27:51.571Z,70.66
2018-06-11T16:30:21.728Z,69.26
2018-06-11T16:32:52.072Z,69.58
2018-06-11T16:35:22.639Z,68.51
2018-06-11T16:37:52.598Z,68.78
2018-06-11T16:40:22.884Z,66.15
2018-06-11T16:42:53.969Z,68.00
2018-06-11T16:45:24.252Z,67.05
2018-06-11T16:47:54.616Z,67.02
2018-06-11T16:50:24.904Z,68.26
2018-06-11T16:52:55.244Z,68.06
2018-06-11T16:55:25.668Z,69.32
2018-06-11T16:57:56.009Z,68.63
2018-06-11T17:00:26.368Z,68.58
2018-06-11T17:02:57.275Z,68.31
2018-06-11T17:05:27.542Z,68.31
2018-06-11T17:07:57.842Z,68.03
2018-06-11T17:10:28.166Z,68.84
2018-06-11T17:12:58.683Z,68.22
2018-06-11T17:15:28.997Z,65.65
2018-06-11T17:17:59.288Z,64.67
2018-06-11T17:20:29.658Z,64.51
2018-06-11T17:22:59.966Z,65.13
2018-06-11T17:25:30.734Z,64.85
2018-06-11T17:28:01.074Z,63.86
2018-06-11T17:30:31.643Z,63.75
2018-06-11T17:33:01.938Z,63.16
2018-06-11T17:35:32.313Z,62.37
2018-06-11T17:38:02.625Z,63.00
2018-06-11T17:40:33.001Z,64.02
2018-06-11T17:43:03.366Z,64.66
2018-06-11T17:45:33.693Z,65.24
2018-06-11T17:48:04.382Z,65.45
2018-06-11T17:50:34.857Z,65.26
2018-06-11T17:53:05.667Z,65.58
2018-06-11T17:55:36.402Z,65.94
2018-06-11T17:58:06.909Z,66.47
2018-06-11T18:00:37.287Z,67.19
2018-06-11T18:03:07.740Z,67.49
2018-06-11T18:05:38.107Z,67.87
2018-06-11T18:08:08.433Z,68.07
2018-06-11T18:10:38.881Z,68.71
2018-06-11T18:13:09.287Z,68.56
2018-06-11T18:15:39.667Z,69.02
2018-06-11T18:18:10.034Z,67.89
2018-06-11T18:20:40.473Z,67.75
2018-06-11T18:23:10.989Z,67.47
2018-06-11T18:25:41.324Z,67.48
2018-06-11T18:28:11.664Z,67.96
2018-06-11T18:30:42.077Z,68.52
2018-06-11T18:33:12.459Z,68.00
2018-06-11T18:35:42.833Z,68.06
2018-06-11T18:38:12.941Z,67.67
2018-06-11T18:40:43.314Z,68.98
2018-06-11T18:43:14.307Z,68.55
2018-06-11T18:45:44.814Z,68.54
2018-06-11T18:48:15.378Z,67.07
2018-06-11T18:50:45.937Z,68.19
2018-06-11T18:53:16.671Z,68.62
2018-06-11T18:55:47.101Z,69.11
2018-06-11T18:58:17.683Z,68.95
2018-06-11T19:00:48.596Z,68.98
2018-06-11T19:03:19.799Z,68.59
2018-06-11T19:05:50.203Z,68.83
2018-06-11T19:08:20.709Z,69.65
2018-06-11T19:10:51.189Z,69.49
2018-06-11T19:13:21.579Z,70.49
2018-06-11T19:15:52.029Z,70.81
2018-06-11T19:18:22.493Z,70.95
2018-06-11T19:20:52.877Z,71.25
2018-06-11T19:23:23.259Z,70.94
2018-06-11T19:25:54.035Z,71.31
2018-06-11T19:28:24.223Z,71.78
2018-06-11T19:30:54.533Z,71.11
2018-06-11T19:33:24.936Z,71.90
2018-06-11T19:35:55.253Z,71.86
2018-06-11T19:38:26.569Z,71.71
2018-06-11T19:40:57.184Z,72.01
2018-06-11T19:43:27.947Z,72.23
2018-06-11T19:45:58.532Z,72.24
2018-06-11T19:48:29.495Z,72.45
2018-06-11T19:51:00.108Z,72.58
2018-06-11T19:53:30.593Z,72.29
2018-06-11T19:56:00.955Z,72.21
2018-06-11T19:58:31.563Z,72.50
2018-06-11T20:01:02.021Z,72.31
2018-06-11T20:03:32.524Z,72.33
2018-06-11T20:06:03.036Z,72.99
2018-06-11T20:08:33.420Z,72.93
2018-06-11T20:11:03.814Z,72.86
2018-06-11T20:13:34.268Z,73.22
2018-06-11T20:16:04.781Z,72.91
2018-06-11T20:18:35.108Z,73.69
2018-06-11T20:21:05.542Z,74.36
2018-06-11T20:23:36.631Z,74.60
2018-06-11T20:26:07.364Z,74.83
2018-06-11T20:28:37.718Z,74.56
2018-06-11T20:31:08.344Z,74.91
2018-06-11T20:33:39.679Z,74.83
2018-06-11T20:36:10.172Z,74.07
2018-06-11T20:38:40.552Z,74.35
2018-06-11T20:41:10.974Z,74.21
2018-06-11T20:43:41.450Z,76.13
2018-06-11T20:46:12.220Z,76.53
2018-06-11T20:48:42.696Z,75.93
2018-06-11T20:51:13.074Z,75.87
2018-06-11T20:53:43.471Z,75.91
2018-06-11T20:56:13.878Z,75.77
2018-06-11T20:58:44.211Z,76.49
2018-06-11T21:01:15.232Z,76.59
2018-06-11T21:03:45.664Z,76.90
2018-06-11T21:06:16.104Z,77.06
2018-06-11T21:08:46.413Z,77.23
2018-06-11T21:11:16.621Z,76.38
2018-06-11T21:13:46.954Z,76.44
2018-06-11T21:16:16.774Z,76.76
2018-06-11T21:18:47.206Z,76.92
2018-06-11T21:21:17.586Z,77.01
2018-06-11T21:23:47.964Z,76.31
2018-06-11T21:26:18.362Z,76.42
2018-06-11T21:28:48.690Z,76.36
2018-06-11T21:31:19.078Z,76.00
2018-06-11T21:33:49.808Z,76.31
2018-06-11T21:36:20.204Z,75.77
2018-06-11T21:38:50.600Z,75.88
2018-06-11T21:41:20.926Z,75.84
2018-06-11T21:43:51.258Z,75.78
2018-06-11T21:46:21.679Z,75.92
2018-06-11T21:48:52.832Z,76.59
2018-06-11T21:51:23.177Z,76.55
2018-06-11T21:53:53.488Z,76.84
2018-06-11T21:56:23.872Z,76.90
2018-06-11T21:58:54.220Z,76.60
2018-06-11T22:01:24.538Z,76.71
2018-06-11T22:03:55.254Z,77.06
2018-06-11T22:06:25.869Z,77.19
2018-06-11T22:08:56.456Z,77.56
2018-06-11T22:11:26.846Z,77.42
2018-06-11T22:13:57.252Z,77.81
2018-06-11T22:16:27.762Z,77.85
2018-06-11T22:18:58.166Z,77.24
2018-06-11T22:21:28.705Z,77.26
2018-06-11T22:23:59.152Z,77.34
2018-06-11T22:26:29.506Z,77.29
2018-06-11T22:28:59.914Z,77.59
2018-06-11T22:31:30.480Z,77.77
2018-06-11T22:34:00.874Z,77.63
2018-06-11T22:36:31.747Z,77.85
2018-06-11T22:39:02.328Z,78.08
2018-06-11T22:41:32.894Z,77.98
2018-06-11T22:44:03.980Z,78.34
2018-06-11T22:46:34.420Z,78.39
2018-06-11T22:49:04.932Z,78.04
2018-06-11T22:55:11.958Z,78.51
2018-06-11T22:57:42.428Z,78.27
2018-06-11T23:00:13.602Z,78.46
2018-06-11T23:02:44.012Z,78.65
2018-06-11T23:05:15.048Z,78.17
2018-06-11T23:07:46.528Z,78.27
2018-06-11T23:10:17.310Z,78.10
2018-06-11T23:12:47.704Z,78.05
2018-06-11T23:15:18.098Z,78.42
2018-06-11T23:17:47.916Z,78.43
2018-06-11T23:20:18.396Z,78.84
2018-06-11T23:22:48.745Z,79.04
2018-06-11T23:25:18.531Z,79.57
2018-06-11T23:27:49.904Z,78.67
2018-06-11T23:30:19.762Z,78.11
2018-06-11T23:32:50.164Z,78.26
2018-06-11T23:35:20.710Z,78.28
2018-06-11T23:37:50.656Z,78.94
2018-06-11T23:40:20.656Z,78.62
2018-06-11T23:42:50.897Z,78.25
2018-06-11T23:45:23.128Z,78.25
2018-06-11T23:47:52.972Z,78.62
2018-06-11T23:50:23.438Z,78.74
2018-06-11T23:52:53.366Z,78.73
2018-06-11T23:55:23.222Z,78.66
2018-06-11T23:57:53.022Z,78.52
